X  Fechar Dados meteorológicos de METAR da aviação     EDDK Cologne Bonn Airport
Temperatura
72°F Temperatura
55°F Ponto de orvalho
57% Umidade



Vento
3 MPH
5 KM/H
1 M/S
3 NÓS



Calmo
N
Condições atuais

Nuvens esparsas Nuvens esparsas
Pressão 1019.98 (hPa) - 30.12 (inHg)
Visibilidade 6 (milha) - 9.7 (km)
Aeroporto
Código do aeroporto EDDK

Localização: Cologne Bonn Airport
Distância: 56 (mi)

Metar:
EDDK 231020Z AUTO VRB03KT 9999 SCT034 SCT041 22/13 Q1020 NOSIG

Hora: 2024-06-23 12:20 CEST